createdAt,value
2022-11-14T00:01:21.994Z,27.85
2022-11-14T00:04:07.250Z,31.35
2022-11-14T00:06:52.863Z,31.50
2022-11-14T00:09:40.500Z,28.33
2022-11-14T00:12:26.678Z,25.00
2022-11-14T00:15:12.844Z,23.75
2022-11-14T00:17:58.179Z,26.38
2022-11-14T00:20:44.035Z,25.33
2022-11-14T00:23:29.537Z,30.52
2022-11-14T00:26:15.187Z,31.63
2022-11-14T00:29:00.659Z,31.27
2022-11-14T00:31:46.060Z,28.23
2022-11-14T00:34:31.698Z,29.85
2022-11-14T00:37:17.304Z,30.13
2022-11-14T00:40:02.604Z,29.88
2022-11-14T00:42:48.023Z,33.15
2022-11-14T00:45:33.513Z,34.25
2022-11-14T00:48:18.910Z,30.80
2022-11-14T00:51:04.331Z,33.88
2022-11-14T00:53:49.687Z,32.95
2022-11-14T00:56:35.101Z,34.25
2022-11-14T00:59:20.775Z,34.80
2022-11-14T01:02:06.183Z,34.83
2022-11-14T01:04:51.716Z,31.77
2022-11-14T01:07:37.098Z,33.03
2022-11-14T01:10:22.621Z,34.33
2022-11-14T01:13:08.695Z,32.72
2022-11-14T01:15:55.129Z,35.50
2022-11-14T01:18:40.846Z,30.05
2022-11-14T01:21:26.193Z,37.08
2022-11-14T01:24:11.599Z,30.67
2022-11-14T01:26:57.008Z,31.42
2022-11-14T01:29:42.530Z,33.70
2022-11-14T01:32:28.393Z,33.58
2022-11-14T01:35:14.301Z,31.75
2022-11-14T01:37:59.662Z,34.60
2022-11-14T01:40:46.587Z,32.80
2022-11-14T01:43:34.847Z,35.90
2022-11-14T01:46:33.247Z,39.00
2022-11-14T01:49:20.589Z,31.38
2022-11-14T01:52:07.270Z,32.97
2022-11-14T01:54:55.810Z,29.58
2022-11-14T01:57:46.085Z,36.50
2022-11-14T02:03:17.780Z,32.33
2022-11-14T02:06:04.641Z,32.03
2022-11-14T02:08:51.787Z,34.15
2022-11-14T02:11:42.318Z,32.10
2022-11-14T02:14:29.065Z,32.78
2022-11-14T02:17:28.871Z,29.40
2022-11-14T02:20:31.741Z,33.22
2022-11-14T02:23:27.253Z,35.60
2022-11-14T02:26:12.738Z,32.88
2022-11-14T02:28:58.197Z,31.88
2022-11-14T02:31:43.586Z,34.50
2022-11-14T02:34:29.407Z,36.92
2022-11-14T02:37:15.023Z,35.67
2022-11-14T02:40:00.524Z,37.05
2022-11-14T02:42:46.091Z,35.50
2022-11-14T02:45:31.568Z,37.85
2022-11-14T02:48:17.160Z,38.53
2022-11-14T02:51:02.578Z,36.58
2022-11-14T02:53:48.060Z,34.33
2022-11-14T02:56:33.678Z,39.97
2022-11-14T02:59:19.650Z,34.10
2022-11-14T03:02:05.324Z,33.15
2022-11-14T03:04:51.105Z,39.10
2022-11-14T03:07:36.698Z,32.35
2022-11-14T03:10:23.599Z,35.30
2022-11-14T03:13:09.363Z,33.45
2022-11-14T03:15:54.611Z,34.38
2022-11-14T03:18:40.576Z,35.35
2022-11-14T03:21:26.008Z,37.25
2022-11-14T03:24:11.473Z,36.00
2022-11-14T03:26:57.169Z,35.28
2022-11-14T03:29:42.363Z,37.22
2022-11-14T03:32:28.004Z,35.30
2022-11-14T03:35:13.650Z,35.65
2022-11-14T03:37:58.840Z,37.03
2022-11-14T03:40:44.731Z,33.70
2022-11-14T03:43:34.485Z,37.38
2022-11-14T03:46:20.255Z,31.75
2022-11-14T03:49:06.323Z,42.58
2022-11-14T03:51:51.971Z,33.55
2022-11-14T03:54:38.481Z,34.72
2022-11-14T03:57:24.085Z,33.03
2022-11-14T04:00:10.296Z,33.05
2022-11-14T04:02:57.033Z,35.47
2022-11-14T04:05:46.232Z,37.42
2022-11-14T04:08:32.336Z,34.97
2022-11-14T04:11:18.575Z,33.85
2022-11-14T04:14:03.946Z,37.85
2022-11-14T04:16:49.505Z,40.22
2022-11-14T04:19:35.202Z,32.47
2022-11-14T04:22:20.771Z,34.97
2022-11-14T04:25:07.308Z,34.33
2022-11-14T04:27:52.766Z,32.53
2022-11-14T04:30:38.273Z,33.22
2022-11-14T04:33:24.029Z,36.55
2022-11-14T04:36:09.476Z,32.40
2022-11-14T04:38:54.950Z,32.33
2022-11-14T04:41:40.588Z,31.85
2022-11-14T04:44:26.049Z,31.25
2022-11-14T04:47:11.481Z,33.83
2022-11-14T04:49:56.907Z,34.35
2022-11-14T04:52:42.541Z,35.83
2022-11-14T04:55:28.442Z,33.42
2022-11-14T04:58:13.776Z,32.45
2022-11-14T05:00:59.375Z,30.27
2022-11-14T05:03:44.838Z,31.45
2022-11-14T05:06:30.495Z,30.48
2022-11-14T05:09:16.067Z,30.30
2022-11-14T05:12:01.831Z,29.20
2022-11-14T05:14:47.250Z,32.60
2022-11-14T05:17:32.396Z,37.00
2022-11-14T05:20:18.046Z,35.08
2022-11-14T05:23:03.570Z,32.70
2022-11-14T05:26:08.901Z,33.83
2022-11-14T05:28:54.654Z,32.13
2022-11-14T05:31:40.277Z,31.58
2022-11-14T05:34:25.834Z,34.78
2022-11-14T05:37:11.506Z,35.33
2022-11-14T05:39:56.972Z,32.20
2022-11-14T05:42:42.640Z,31.27
2022-11-14T05:45:28.326Z,30.67
2022-11-14T05:48:13.894Z,32.53
2022-11-14T05:51:01.242Z,31.58
2022-11-14T05:53:46.697Z,29.92
2022-11-14T05:56:31.877Z,32.42
2022-11-14T05:59:17.613Z,31.80
2022-11-14T06:02:03.248Z,31.50
2022-11-14T06:04:48.871Z,31.40
2022-11-14T06:07:34.165Z,32.38
2022-11-14T06:10:19.658Z,32.45
2022-11-14T06:13:05.493Z,32.90
2022-11-14T06:15:51.506Z,30.70
2022-11-14T06:18:37.591Z,30.63
2022-11-14T06:21:25.423Z,28.38
2022-11-14T06:24:10.846Z,30.17
2022-11-14T06:26:56.852Z,31.95
2022-11-14T06:29:42.148Z,26.17
2022-11-14T06:32:27.553Z,29.33
2022-11-14T06:35:13.355Z,29.45
2022-11-14T06:38:00.244Z,31.20
2022-11-14T06:40:45.591Z,29.73
2022-11-14T06:43:33.829Z,30.02
2022-11-14T06:46:21.631Z,31.00
2022-11-14T06:49:06.988Z,30.77
2022-11-14T06:51:52.574Z,33.83
2022-11-14T06:54:38.113Z,31.10
2022-11-14T06:57:23.396Z,27.35
2022-11-14T07:00:09.528Z,27.40
2022-11-14T07:02:54.924Z,30.40
2022-11-14T07:05:40.632Z,29.67
2022-11-14T07:08:26.498Z,31.30
2022-11-14T07:11:23.033Z,31.20
2022-11-14T07:14:09.609Z,28.35
2022-11-14T07:16:55.180Z,30.73
2022-11-14T07:19:40.713Z,31.73
2022-11-14T07:22:26.380Z,30.30
2022-11-14T07:25:11.859Z,31.45
2022-11-14T07:27:58.416Z,34.67
2022-11-14T07:30:44.074Z,30.20
2022-11-14T07:33:30.427Z,31.25
2022-11-14T07:36:17.476Z,30.70
2022-11-14T07:39:03.475Z,27.60
2022-11-14T07:41:48.689Z,29.63
2022-11-14T07:44:34.199Z,27.58
2022-11-14T07:47:19.795Z,28.92
2022-11-14T07:50:05.456Z,28.40
2022-11-14T07:52:55.019Z,25.88
2022-11-14T07:55:40.433Z,27.88
2022-11-14T07:58:26.042Z,29.17
2022-11-14T08:01:13.741Z,27.20
2022-11-14T08:03:59.678Z,29.80
2022-11-14T08:06:45.200Z,28.65
2022-11-14T08:09:30.806Z,29.42
2022-11-14T08:12:16.199Z,31.10
2022-11-14T08:15:02.406Z,31.38
2022-11-14T08:17:47.806Z,28.80
2022-11-14T08:20:33.364Z,31.42
2022-11-14T08:23:18.750Z,34.63
2022-11-14T08:26:04.337Z,30.77
2022-11-14T08:28:53.812Z,29.55
2022-11-14T08:31:39.504Z,29.30
2022-11-14T08:34:25.959Z,28.38
2022-11-14T08:37:11.584Z,30.92
2022-11-14T08:39:57.294Z,29.50
2022-11-14T08:42:42.857Z,30.10
2022-11-14T08:45:29.683Z,27.75
2022-11-14T08:48:14.879Z,27.90
2022-11-14T08:51:05.618Z,28.15
2022-11-14T08:53:52.461Z,34.30
2022-11-14T08:56:37.995Z,27.55
2022-11-14T08:59:23.492Z,24.50
2022-11-14T09:02:13.703Z,26.08
2022-11-14T09:04:59.047Z,27.02
2022-11-14T09:07:44.357Z,28.00
2022-11-14T09:10:30.175Z,25.88
2022-11-14T09:13:15.430Z,26.40
2022-11-14T09:16:01.231Z,28.00
2022-11-14T09:18:46.597Z,26.45
2022-11-14T09:21:31.993Z,21.88
2022-11-14T09:24:17.540Z,21.77
2022-11-14T09:27:03.723Z,25.05
2022-11-14T09:29:48.931Z,24.67
2022-11-14T09:32:34.546Z,23.35
2022-11-14T09:35:20.069Z,20.73
2022-11-14T09:38:07.958Z,25.67
2022-11-14T09:41:22.151Z,28.85
2022-11-14T09:44:19.158Z,24.67
2022-11-14T09:47:20.859Z,22.85
2022-11-14T09:50:16.096Z,23.58
2022-11-14T09:53:07.066Z,24.15
2022-11-14T09:55:52.628Z,23.42
2022-11-14T09:58:38.355Z,22.05
2022-11-14T10:01:32.894Z,22.13
2022-11-14T10:04:46.245Z,23.42
2022-11-14T10:07:57.838Z,25.70
2022-11-14T10:11:13.473Z,25.33
2022-11-14T10:14:31.853Z,22.83
2022-11-14T10:17:32.808Z,22.20
2022-11-14T10:20:29.244Z,24.02
2022-11-14T10:23:26.180Z,25.65
2022-11-14T10:26:17.720Z,20.63
2022-11-14T10:29:30.418Z,22.15
2022-11-14T10:32:18.851Z,25.98
2022-11-14T10:35:16.905Z,23.20
2022-11-14T10:38:19.997Z,25.42
2022-11-14T10:41:08.262Z,25.10
2022-11-14T10:43:55.342Z,26.42
2022-11-14T10:46:51.177Z,21.55
2022-11-14T10:49:38.691Z,27.80
2022-11-14T10:52:36.799Z,19.80
2022-11-14T10:55:32.048Z,23.52
2022-11-14T10:58:27.971Z,20.48
2022-11-14T11:01:32.877Z,19.05
2022-11-14T11:04:36.937Z,20.83
2022-11-14T11:07:44.281Z,24.52
2022-11-14T11:10:49.625Z,21.77
2022-11-14T11:13:40.956Z,23.25
2022-11-14T11:16:28.434Z,21.08
2022-11-14T11:19:26.191Z,20.63
2022-11-14T11:22:28.309Z,21.00
2022-11-14T11:25:24.946Z,19.92
2022-11-14T11:28:21.635Z,22.00
2022-11-14T11:31:09.638Z,20.10
2022-11-14T11:33:55.754Z,21.27
2022-11-14T11:36:49.365Z,17.38
2022-11-14T11:39:45.493Z,17.48
2022-11-14T11:43:31.825Z,18.02
2022-11-14T11:45:50.986Z,17.63
2022-11-14T11:48:40.245Z,22.42
2022-11-14T11:51:27.163Z,19.85
2022-11-14T11:54:41.745Z,19.35
2022-11-14T11:57:43.507Z,21.80
2022-11-14T12:00:29.689Z,17.15
2022-11-14T12:03:20.240Z,18.83
2022-11-14T12:06:27.441Z,17.80
2022-11-14T12:09:21.967Z,19.73
2022-11-14T12:12:15.840Z,24.75
2022-11-14T12:15:17.839Z,19.17
2022-11-14T12:18:15.205Z,18.52
2022-11-14T12:21:08.286Z,17.80
2022-11-14T12:24:22.830Z,16.73
2022-11-14T12:27:11.280Z,19.23
2022-11-14T12:30:13.984Z,20.55
2022-11-14T12:33:09.935Z,21.08
2022-11-14T12:35:58.899Z,19.38
2022-11-14T12:38:52.715Z,18.63
2022-11-14T12:41:40.287Z,20.75
2022-11-14T12:44:28.867Z,21.05
2022-11-14T12:47:20.840Z,19.33
2022-11-14T12:50:41.169Z,18.63
2022-11-14T12:53:38.474Z,18.58
2022-11-14T12:56:26.877Z,19.60
2022-11-14T13:00:00.298Z,19.85
2022-11-14T13:03:19.642Z,18.02
2022-11-14T13:06:11.737Z,20.40
2022-11-14T13:09:02.965Z,31.10
2022-11-14T13:12:07.590Z,17.60
2022-11-14T13:15:14.335Z,19.67
2022-11-14T13:18:37.175Z,18.75
2022-11-14T13:21:46.996Z,17.40
2022-11-14T13:25:00.973Z,17.95
2022-11-14T13:31:22.466Z,19.33
2022-11-14T13:34:35.221Z,20.58
2022-11-14T13:37:54.833Z,20.90
2022-11-14T13:41:24.443Z,17.08
2022-11-14T13:44:38.532Z,21.67
2022-11-14T13:47:54.429Z,18.15
2022-11-14T13:50:40.710Z,17.88
2022-11-14T13:53:29.701Z,17.70
2022-11-14T13:56:40.915Z,21.90
2022-11-14T14:00:20.096Z,19.48
2022-11-14T14:03:44.713Z,20.77
2022-11-14T14:06:55.879Z,22.20
2022-11-14T14:09:57.958Z,22.25
2022-11-14T14:13:07.024Z,18.88
2022-11-14T14:16:21.800Z,19.63
2022-11-14T14:19:25.532Z,16.77
2022-11-14T14:22:23.610Z,20.55
2022-11-14T14:25:30.212Z,21.73
2022-11-14T14:28:37.003Z,19.27
2022-11-14T14:31:25.399Z,16.58
2022-11-14T14:34:30.193Z,19.08
2022-11-14T14:37:21.288Z,18.75
2022-11-14T14:40:11.598Z,17.20
2022-11-14T14:42:57.479Z,18.88
2022-11-14T14:45:51.530Z,21.98
2022-11-14T14:48:42.115Z,20.17
2022-11-14T14:51:38.338Z,17.38
2022-11-14T14:54:29.592Z,23.02
2022-11-14T14:57:22.537Z,16.65
2022-11-14T15:00:26.321Z,20.23
2022-11-14T15:03:11.840Z,19.63
2022-11-14T15:06:05.875Z,17.48
2022-11-14T15:08:51.474Z,16.25
2022-11-14T15:11:41.052Z,17.20
2022-11-14T15:14:30.104Z,17.92
2022-11-14T15:17:16.349Z,18.60
2022-11-14T15:20:02.950Z,18.15
2022-11-14T15:23:19.435Z,18.35
2022-11-14T15:26:24.703Z,17.80
2022-11-14T15:29:22.430Z,20.75
2022-11-14T15:32:19.494Z,19.33
2022-11-14T15:35:24.864Z,17.42
2022-11-14T15:38:41.813Z,16.30
2022-11-14T15:41:28.116Z,14.38
2022-11-14T15:44:34.022Z,16.40
2022-11-14T15:47:25.760Z,16.90
2022-11-14T15:50:14.383Z,22.58
2022-11-14T15:53:05.226Z,17.48
2022-11-14T15:55:50.692Z,21.90
2022-11-14T15:58:35.989Z,20.75
2022-11-14T16:01:27.880Z,15.43
2022-11-14T16:04:20.184Z,17.48
2022-11-14T16:07:06.036Z,18.88
2022-11-14T16:09:51.771Z,18.42
2022-11-14T16:12:37.418Z,18.98
2022-11-14T16:15:23.386Z,18.58
2022-11-14T16:18:11.446Z,24.58
2022-11-14T16:20:59.483Z,26.38
2022-11-14T16:23:45.168Z,24.95
2022-11-14T16:26:31.375Z,18.73
2022-11-14T16:29:18.550Z,20.17
2022-11-14T16:32:03.936Z,25.17
2022-11-14T16:34:49.298Z,20.10
2022-11-14T16:37:35.010Z,24.40
2022-11-14T16:40:27.549Z,18.83
2022-11-14T16:43:14.996Z,21.50
2022-11-14T16:46:07.733Z,18.80
2022-11-14T16:48:54.377Z,17.33
2022-11-14T16:51:47.939Z,25.08
2022-11-14T16:54:34.905Z,22.70
2022-11-14T16:57:20.500Z,21.35
2022-11-14T17:00:08.216Z,20.15
2022-11-14T17:02:53.676Z,24.40
2022-11-14T17:05:47.404Z,22.35
2022-11-14T17:08:32.864Z,21.90
2022-11-14T17:11:18.966Z,25.35
2022-11-14T17:14:04.613Z,21.52
2022-11-14T17:16:50.397Z,28.23
2022-11-14T17:19:36.040Z,22.48
2022-11-14T17:22:21.514Z,22.92
2022-11-14T17:25:07.397Z,22.67
2022-11-14T17:27:52.687Z,23.33
2022-11-14T17:30:42.437Z,20.98
2022-11-14T17:33:27.862Z,24.73
2022-11-14T17:36:14.172Z,24.50
2022-11-14T17:38:59.816Z,24.48
2022-11-14T17:41:45.102Z,23.38
2022-11-14T17:44:30.512Z,28.17
2022-11-14T17:47:15.798Z,21.65
2022-11-14T17:50:01.369Z,23.95
2022-11-14T17:52:46.949Z,21.73
2022-11-14T17:55:32.530Z,25.00
2022-11-14T17:58:18.260Z,27.45
2022-11-14T18:01:13.180Z,31.25
2022-11-14T18:04:04.514Z,25.63
2022-11-14T18:06:51.912Z,23.83
2022-11-14T18:09:37.778Z,19.85
2022-11-14T18:12:23.281Z,21.73
2022-11-14T18:15:09.198Z,19.33
2022-11-14T18:17:54.683Z,22.33
2022-11-14T18:20:40.457Z,20.13
2022-11-14T18:23:25.940Z,20.60
2022-11-14T18:26:14.779Z,23.70
2022-11-14T18:29:04.497Z,19.45
2022-11-14T18:31:50.524Z,23.17
2022-11-14T18:34:41.222Z,18.95
2022-11-14T18:37:27.719Z,16.13
2022-11-14T18:40:16.503Z,16.23
2022-11-14T18:43:03.205Z,18.20
2022-11-14T18:45:49.149Z,15.77
2022-11-14T18:48:36.931Z,18.20
2022-11-14T18:51:25.773Z,20.10
2022-11-14T18:54:19.227Z,21.67
2022-11-14T18:57:04.845Z,16.08
2022-11-14T18:59:50.134Z,15.25
2022-11-14T19:02:35.978Z,15.95
2022-11-14T19:05:21.674Z,17.20
2022-11-14T19:08:07.797Z,15.63
2022-11-14T19:10:53.603Z,14.07
2022-11-14T19:13:38.939Z,15.27
2022-11-14T19:16:24.802Z,16.67
2022-11-14T19:19:10.273Z,13.63
2022-11-14T19:21:55.660Z,14.50
2022-11-14T19:24:43.072Z,11.45
2022-11-14T19:27:28.287Z,13.43
2022-11-14T19:30:15.863Z,13.60
2022-11-14T19:33:03.402Z,11.10
2022-11-14T19:35:48.916Z,13.43
2022-11-14T19:38:34.709Z,15.80
2022-11-14T19:41:21.926Z,14.85
2022-11-14T19:44:07.533Z,17.42
2022-11-14T19:46:53.146Z,13.43
2022-11-14T19:49:38.536Z,12.63
2022-11-14T19:52:23.815Z,10.23
2022-11-14T19:55:09.494Z,13.93
2022-11-14T19:57:55.178Z,12.98
2022-11-14T20:00:40.406Z,11.15
2022-11-14T20:03:25.857Z,13.90
2022-11-14T20:06:15.708Z,10.82
2022-11-14T20:09:04.096Z,11.90
2022-11-14T20:11:49.400Z,9.90
2022-11-14T20:14:34.922Z,11.90
2022-11-14T20:17:20.691Z,12.45
2022-11-14T20:20:06.939Z,12.95
2022-11-14T20:22:52.274Z,12.73
2022-11-14T20:25:38.585Z,9.40
2022-11-14T20:28:24.324Z,8.75
2022-11-14T20:31:21.758Z,12.15
2022-11-14T20:34:07.105Z,7.80
2022-11-14T20:39:57.874Z,8.52
2022-11-14T20:42:47.918Z,9.93
2022-11-14T20:45:54.152Z,9.02
2022-11-14T20:48:40.668Z,7.85
2022-11-14T20:51:26.662Z,8.10
2022-11-14T20:54:12.513Z,12.40
2022-11-14T20:56:57.952Z,8.52
2022-11-14T20:59:43.567Z,9.18
2022-11-14T21:02:29.067Z,8.43
2022-11-14T21:05:14.492Z,11.40
2022-11-14T21:08:00.096Z,7.57
2022-11-14T21:10:48.011Z,10.32
2022-11-14T21:13:56.453Z,8.93
2022-11-14T21:16:42.006Z,10.57
2022-11-14T21:19:29.249Z,9.40
2022-11-14T21:22:15.028Z,6.65
2022-11-14T21:25:01.853Z,6.10
2022-11-14T21:27:47.502Z,7.95
2022-11-14T21:30:34.730Z,7.60
2022-11-14T21:33:20.162Z,7.15
2022-11-14T21:36:30.111Z,7.85
2022-11-14T21:39:16.680Z,5.63
2022-11-14T21:42:02.341Z,4.13
2022-11-14T21:44:47.706Z,6.60
2022-11-14T21:47:34.294Z,7.63
2022-11-14T21:50:20.043Z,9.07
2022-11-14T21:53:15.994Z,6.28
2022-11-14T21:56:09.123Z,10.70
2022-11-14T21:59:14.882Z,6.53
2022-11-14T22:02:19.839Z,6.53
2022-11-14T22:05:06.407Z,6.10
2022-11-14T22:07:51.634Z,4.70
2022-11-14T22:10:37.105Z,8.20
2022-11-14T22:13:22.642Z,8.15
2022-11-14T22:16:10.040Z,7.50
2022-11-14T22:19:00.482Z,6.07
2022-11-14T22:21:50.107Z,6.38
2022-11-14T22:24:35.316Z,6.53
2022-11-14T22:27:20.963Z,12.20
2022-11-14T22:30:06.962Z,9.98
2022-11-14T22:32:52.430Z,5.35
2022-11-14T22:35:38.053Z,4.78
2022-11-14T22:38:23.593Z,6.57
2022-11-14T22:41:14.750Z,6.57
2022-11-14T22:44:00.539Z,5.55
2022-11-14T22:46:46.356Z,8.43
2022-11-14T22:49:31.558Z,5.65
2022-11-14T22:52:17.083Z,7.75
2022-11-14T22:55:02.615Z,5.65
2022-11-14T22:57:48.169Z,7.57
2022-11-14T23:00:33.631Z,8.20
2022-11-14T23:03:32.074Z,7.40
2022-11-14T23:06:19.300Z,7.00
2022-11-14T23:09:05.443Z,5.25
2022-11-14T23:11:50.854Z,6.63
2022-11-14T23:14:36.415Z,5.38
2022-11-14T23:17:22.103Z,6.88
2022-11-14T23:20:13.604Z,7.55
2022-11-14T23:23:01.774Z,5.82
2022-11-14T23:25:47.067Z,7.35
2022-11-14T23:28:33.205Z,5.35
2022-11-14T23:31:19.157Z,8.23
2022-11-14T23:34:04.623Z,5.63
2022-11-14T23:36:50.363Z,5.72
2022-11-14T23:39:36.048Z,8.52
2022-11-14T23:42:21.563Z,6.65
2022-11-14T23:45:07.606Z,6.32
2022-11-14T23:47:53.254Z,5.43
2022-11-14T23:50:38.541Z,6.35
2022-11-14T23:53:24.318Z,6.13
2022-11-14T23:56:12.660Z,8.23
2022-11-14T23:58:58.258Z,6.30
